Latest Weather Observations for Maroochydore

IDQ60801

Issued at 4:32 pm EST Wednesday 26 July 2017 (issued every 30 minutes, with the page automatically refreshed every 10 minutes)

About weather observations | Map of weather stations | Latest weather observations for QLD | Other Formats
Station Details ID: 040861 Name: SUNSHINE COAST AIRPORT Lat: -26.60 Lon: 153.09 Height: 3.3 m
Data from the previous 72 hours. | See also: Recent months at Maroochydore
Date/Time
EST
Temp
°C
App
Temp
°C
Dew
Point
°C
Rel
Hum
%
Delta-T
°C
Wind Press
QNH
hPa
Press
MSL
hPa
Rain since
9am
mm
Dir  Spd
km/h
Gust
km/h
Spd
kts
Gust
kts
26/04:00pm 21.1 17.9 8.4 44 6.6 NNE 15 20 8 11 1019.7 - 0.2
26/03:30pm 21.8 18.2 8.3 42 7.1 NNE 17 19 9 10 1019.3 - 0.2
26/03:00pm 22.2 18.5 6.4 36 8.0 NNE 15 19 8 10 1019.2 1019.2 0.2
26/02:30pm 22.7 19.4 6.5 35 8.3 NE 13 17 7 9 1019.4 - 0.2
26/02:00pm 22.9 19.5 5.8 33 8.6 NE 13 17 7 9 1019.7 - 0.2
26/01:30pm 22.3 18.9 5.7 34 8.3 NE 13 15 7 8 1020.0 - 0.2
26/01:00pm 22.1 19.1 5.9 35 8.2 ENE 11 15 6 8 1020.3 - 0.2
26/12:30pm 22.1 18.7 5.9 35 8.2 E 13 15 7 8 1020.7 - 0.2
26/12:00pm 21.8 18.2 4.8 33 8.3 E 13 15 7 8 1021.1 1021.1 0.2
26/11:30am 21.1 17.8 4.6 34 8.0 E 11 15 6 8 1021.7 - 0.2
26/11:00am 20.7 17.4 4.3 34 7.9 E 11 13 6 7 1022.2 - 0.2
26/10:30am 21.3 18.2 1.6 27 9.1 SSE 7 11 4 6 1022.5 - 0.2
26/10:00am 20.4 18.3 4.0 34 7.9 W 4 9 2 5 1022.7 - 0.0
26/09:30am 18.7 16.1 5.9 43 6.3 W 9 13 5 7 1023.0 - 0.0
26/09:00am 16.7 14.3 7.1 53 4.7 W 9 13 5 7 1022.9 1022.9 0.0
26/08:30am 14.3 12.3 8.5 68 2.9 W 9 11 5 6 1022.9 - 0.0
26/08:00am 11.7 9.6 8.2 79 1.7 W 9 11 5 6 1022.8 - 0.0
26/07:30am 9.0 6.4 7.6 91 0.7 W 11 13 6 7 1022.5 - 0.0
26/07:00am 6.9 3.5 5.7 92 0.5 W 13 17 7 9 1022.3 - 0.0
26/06:30am 6.8 3.8 5.9 94 0.4 WNW 11 13 6 7 1022.1 - 0.0
26/06:00am 6.2 3.1 5.5 95 0.3 W 11 13 6 7 1022.1 1022.1 0.0
26/05:30am 6.6 3.5 5.7 94 0.4 WNW 11 13 6 7 1021.8 - 0.0
26/05:17am 6.8 3.4 6.1 95 0.3 W 13 15 7 8 1021.7 - 0.0
26/05:00am 6.4 3.3 5.7 95 0.3 W 11 13 6 7 1021.7 - 0.0
26/04:30am 6.5 3.5 5.8 95 0.3 W 11 11 6 6 1021.6 - 0.0
26/04:00am 6.4 3.3 5.5 94 0.4 WNW 11 13 6 7 1021.7 - 0.0
26/03:38am 6.8 3.8 6.1 95 0.3 WNW 11 11 6 6 1021.6 - 0.0
26/03:30am 6.9 3.9 6.2 95 0.3 WNW 11 11 6 6 1021.7 - 0.0
26/03:00am 7.0 4.1 6.3 95 0.3 W 11 11 6 6 1021.7 1021.7 0.0
26/02:30am 6.8 4.2 6.1 95 0.3 W 9 11 5 6 1021.9 - 0.0
26/02:00am 7.0 4.0 6.1 94 0.4 W 11 13 6 7 1022.2 - 0.0
26/01:30am 7.5 5.1 6.8 95 0.3 W 9 11 5 6 1022.2 - 0.0
26/01:05am 7.0 4.0 6.1 94 0.4 W 11 13 6 7 1022.3 - 0.0
26/01:00am 6.9 4.3 6.2 95 0.3 W 9 13 5 7 1022.2 - 0.0
26/12:30am 7.0 4.8 6.1 94 0.4 W 7 9 4 5 1022.5 - 0.0
26/12:00am 7.6 5.6 6.9 95 0.3 W 7 9 4 5 1022.5 1022.5 0.0
 
Date/Time
EST
Temp
°C
App
Temp
°C
Dew
Point
°C
Rel
Hum
%
Delta-T
°C
Wind Press
QNH
hPa
Press
MSL
hPa
Rain since
9am
mm
Dir  Spd
km/h
Gust
km/h
Spd
kts
Gust
kts
25/11:30pm 7.2 4.6 6.3 94 0.4 W 9 9 5 5 1022.6 - 0.0
25/11:00pm 7.8 5.8 7.1 95 0.3 W 7 9 4 5 1022.6 - 0.0
25/10:30pm 7.4 4.8 6.3 93 0.5 W 9 11 5 6 1022.5 - 0.0
25/10:00pm 7.8 5.3 6.7 93 0.5 WSW 9 9 5 5 1022.6 - 0.0
25/09:30pm 8.3 5.9 7.2 93 0.5 WSW 9 11 5 6 1022.5 - 0.0
25/09:00pm 8.6 6.2 7.2 91 0.7 W 9 11 5 6 1022.4 1022.4 0.0
25/08:30pm 8.8 6.8 7.1 89 0.8 WNW 7 9 4 5 1022.4 - 0.0
25/08:00pm 9.0 7.0 7.3 89 0.8 W 7 9 4 5 1022.3 - 0.0
25/07:30pm 9.4 7.4 7.0 85 1.1 WSW 7 9 4 5 1022.1 - 0.0
25/07:00pm 11.1 9.3 7.8 80 1.6 WSW 7 9 4 5 1022.0 - 0.0
25/06:30pm 12.1 11.1 7.2 72 2.4 S 2 7 1 4 1021.7 - 0.0
25/06:00pm 14.1 12.4 6.0 58 3.8 E 4 9 2 5 1021.3 1021.3 0.0
25/05:30pm 18.0 15.4 5.9 45 5.9 E 9 13 5 7 1020.9 - 0.0
25/05:00pm 18.8 15.6 4.9 40 6.7 E 11 15 6 8 1020.8 - 0.0
25/04:30pm 19.8 16.2 5.1 38 7.2 E 13 15 7 8 1020.5 - 0.0
25/04:00pm 20.6 16.8 3.8 33 8.0 E 13 19 7 10 1020.4 - 0.0
25/03:30pm 21.0 17.3 4.6 34 8.0 E 13 17 7 9 1020.5 - 0.0
25/03:00pm 21.3 17.1 4.0 32 8.3 E 15 20 8 11 1020.6 1020.6 0.0
25/02:30pm 21.5 16.9 3.7 31 8.6 E 17 22 9 12 1020.7 - 0.0
25/02:00pm 21.9 17.0 4.0 31 8.7 E 19 22 10 12 1020.8 - 0.0
25/01:30pm 21.6 16.3 2.8 29 8.9 ESE 20 26 11 14 1021.0 - 0.0
25/01:00pm 22.2 17.1 2.8 28 9.2 ESE 19 24 10 13 1021.1 - 0.0
25/12:30pm 22.4 17.3 3.0 28 9.3 SE 19 26 10 14 1021.5 - 0.0
25/12:00pm 22.7 19.5 2.8 27 9.4 ESE 9 13 5 7 1022.1 1022.1 0.0
25/11:30am 22.2 17.9 0.7 24 9.8 ESE 13 17 7 9 1022.7 - 0.0
25/11:00am 22.3 18.2 -0.4 22 10.1 SE 11 22 6 12 1023.3 - 0.0
25/10:30am 21.2 18.2 4.3 33 8.2 E 9 13 5 7 1023.8 - 0.0
25/10:00am 20.9 17.7 3.2 31 8.4 SSE 9 15 5 8 1024.0 - 0.0
25/09:30am 19.3 16.8 5.0 39 6.9 WSW 7 11 4 6 1024.0 - 0.0
25/09:00am 16.6 14.4 7.8 56 4.4 W 9 11 5 6 1024.1 1024.1 0.0
25/08:30am 13.4 11.7 8.5 72 2.4 W 7 11 4 6 1023.9 - 0.0
25/08:00am 10.4 8.4 6.9 79 1.7 WNW 7 11 4 6 1023.6 - 0.0
25/07:30am 8.1 5.6 6.6 90 0.7 W 9 13 5 7 1023.4 - 0.0
25/07:00am 5.4 2.1 4.4 93 0.4 W 11 13 6 7 1023.2 - 0.0
25/06:59am 5.3 2.0 4.3 93 0.4 W 11 13 6 7 1023.2 - 0.0
25/06:39am 5.0 2.0 4.1 94 0.4 W 9 11 5 6 1023.0 - 0.0
25/06:30am 4.8 1.8 3.9 94 0.4 W 9 11 5 6 1022.9 - 0.0
25/06:18am 5.2 2.2 4.3 94 0.4 W 9 11 5 6 1022.8 - 0.0
25/06:00am 4.9 1.5 4.0 94 0.4 W 11 11 6 6 1022.5 1022.5 0.0
25/05:30am 5.7 2.8 4.8 94 0.4 W 9 11 5 6 1022.1 - 0.0
25/05:00am 5.3 2.0 4.4 94 0.4 W 11 13 6 7 1021.8 - 0.0
25/04:40am 5.1 2.5 4.2 94 0.4 W 7 9 4 5 1021.8 - 0.0
25/04:30am 5.2 2.2 4.3 94 0.4 W 9 11 5 6 1021.6 - 0.0
25/04:00am 5.3 2.4 4.4 94 0.4 W 9 11 5 6 1021.4 - 0.0
25/03:30am 5.7 2.4 4.8 94 0.4 W 11 11 6 6 1021.3 - 0.0
25/03:00am 5.3 2.6 3.8 90 0.6 W 7 9 4 5 1021.3 1021.3 0.0
25/02:30am 6.7 4.0 5.5 92 0.5 W 9 11 5 6 1021.3 - 0.0
25/02:00am 6.5 3.8 5.5 93 0.4 W 9 11 5 6 1021.2 - 0.0
25/01:30am 7.3 4.8 6.4 94 0.4 W 9 11 5 6 1021.3 - 0.0
25/01:00am 6.8 3.7 5.7 93 0.5 W 11 11 6 6 1021.5 - 0.0
25/12:30am 7.3 4.8 6.6 95 0.3 W 9 11 5 6 1021.5 - 0.0
25/12:00am 6.8 3.7 5.7 93 0.5 W 11 13 6 7 1021.5 1021.5 0.0
 
Date/Time
EST
Temp
°C
App
Temp
°C
Dew
Point
°C
Rel
Hum
%
Delta-T
°C
Wind Press
QNH
hPa
Press
MSL
hPa
Rain since
9am
mm
Dir  Spd
km/h
Gust
km/h
Spd
kts
Gust
kts
24/11:30pm 7.2 5.0 6.1 93 0.5 W 7 11 4 6 1021.5 - 0.0
24/11:00pm 7.5 4.9 6.3 92 0.5 W 9 9 5 5 1021.5 - 0.0
24/10:30pm 7.5 4.8 5.6 88 0.8 W 9 9 5 5 1021.5 - 0.0
24/10:00pm 9.4 7.2 7.7 89 0.8 SW 9 13 5 7 1021.5 - 0.0
24/09:30pm 9.4 7.2 8.0 91 0.7 W 9 13 5 7 1021.5 - 0.0
24/09:00pm 9.3 7.2 8.2 93 0.5 W 9 13 5 7 1021.4 1021.4 0.0
24/08:30pm 9.4 7.3 8.2 92 0.6 W 9 11 5 6 1021.4 - 0.0
24/08:00pm 10.5 9.2 9.3 92 0.6 W 6 9 3 5 1021.3 - 0.0
24/07:30pm 10.8 9.3 9.1 89 0.8 W 7 9 4 5 1021.0 - 0.0
24/07:00pm 11.4 9.6 9.3 87 1.1 W 9 9 5 5 1020.6 - 0.0
24/06:30pm 12.4 10.5 9.2 81 1.6 WNW 9 11 5 6 1020.2 - 0.0
24/06:00pm 13.7 12.9 9.7 77 2.0 ESE 4 7 2 4 1020.0 1020.0 0.0
24/05:30pm 15.3 13.7 8.8 65 3.3 E 7 7 4 4 1019.7 - 0.0
24/05:00pm 18.9 17.0 9.1 53 5.1 E 9 11 5 6 1019.5 - 0.0
24/04:30pm 20.2 18.2 8.8 48 6.0 E 9 11 5 6 1019.2 - 0.0
24/04:00pm 20.9 19.1 7.9 43 6.7 E 7 9 4 5 1019.0 - 0.0
24/03:30pm 21.4 19.1 7.6 41 7.1 E 9 13 5 7 1019.1 - 0.0
24/03:00pm 21.6 18.1 5.5 35 8.0 ESE 13 17 7 9 1019.0 1019.0 0.0
24/02:30pm 21.8 18.4 3.9 31 8.7 ESE 11 13 6 7 1019.1 - 0.0
24/02:00pm 21.6 18.1 3.3 30 8.7 E 11 15 6 8 1019.2 - 0.0
24/01:30pm 21.7 18.1 2.9 29 8.9 E 11 15 6 8 1019.4 - 0.0
24/01:00pm 21.5 18.1 4.1 32 8.4 E 11 15 6 8 1019.6 - 0.0
24/12:30pm 21.4 17.7 4.5 33 8.2 E 13 17 7 9 1019.9 - 0.0
24/12:00pm 21.7 17.7 2.9 29 8.9 E 13 17 7 9 1020.5 1020.5 0.0
24/11:30am 21.8 18.3 1.5 26 9.4 E 9 13 5 7 1020.7 - 0.0
24/11:00am 21.7 18.3 1.9 27 9.2 S 9 15 5 8 1021.2 - 0.0
24/10:30am 21.1 17.7 -0.8 23 9.6 SSE 7 11 4 6 1021.6 - 0.0
24/10:00am 19.4 16.2 0.9 29 8.3 W 7 11 4 6 1021.8 - 0.0
24/09:30am 17.8 15.8 7.0 49 5.4 W 7 9 4 5 1021.8 - 0.0
24/09:00am 14.9 11.9 7.5 61 3.6 W 13 15 7 8 1021.6 1021.6 0.2
24/08:30am 12.3 9.6 7.4 72 2.4 W 11 15 6 8 1021.4 - 0.2
24/08:00am 9.8 6.9 6.5 80 1.5 WNW 11 13 6 7 1021.3 - 0.2
24/07:30am 7.8 5.3 6.7 93 0.5 WNW 9 9 5 5 1020.9 - 0.2
24/07:00am 4.8 1.8 3.9 94 0.4 W 9 11 5 6 1020.7 - 0.2
24/06:30am 4.7 1.7 4.0 95 0.3 WNW 9 11 5 6 1020.5 - 0.0
24/06:00am 4.9 1.6 4.3 96 0.3 W 11 11 6 6 1020.3 1020.3 0.0
24/05:30am 4.7 1.3 3.8 94 0.4 W 11 13 6 7 1020.1 - 0.0
24/05:00am 5.5 2.6 4.6 94 0.4 W 9 13 5 7 1019.8 - 0.0
24/04:30am 5.6 2.4 4.9 95 0.3 W 11 15 6 8 1019.5 - 0.0
24/04:00am 5.4 2.5 4.5 94 0.4 W 9 11 5 6 1019.4 - 0.0
24/03:30am 6.4 3.7 5.7 95 0.3 WNW 9 11 5 6 1019.3 - 0.0
24/03:00am 7.1 4.5 6.2 94 0.4 W 9 11 5 6 1019.4 1019.4 0.0
24/02:30am 7.6 4.1 7.0 96 0.3 WNW 15 15 8 8 1019.5 - 0.0
24/02:00am 7.6 5.2 6.9 95 0.3 WNW 9 11 5 6 1019.7 - 0.0
24/01:30am 7.7 4.9 7.1 96 0.3 WNW 11 11 6 6 1019.7 - 0.0
24/01:00am 8.1 5.8 7.5 96 0.3 W 9 11 5 6 1019.9 - 0.0
24/12:52am 8.1 5.8 7.3 95 0.4 W 9 11 5 6 1019.9 - 0.0
24/12:38am 8.8 6.3 8.2 96 0.3 W 11 11 6 6 1020.0 - 0.0
24/12:30am 9.0 6.9 8.2 95 0.4 W 9 11 5 6 1020.0 - 0.0
24/12:08am 9.1 7.1 8.5 96 0.3 W 9 11 5 6 1019.9 - 0.0
24/12:00am 9.0 6.9 8.4 96 0.3 W 9 11 5 6 1019.9 1019.9 0.0
 
Date/Time
EST
Temp
°C
App
Temp
°C
Dew
Point
°C
Rel
Hum
%
Delta-T
°C
Wind Press
QNH
hPa
Press
MSL
hPa
Rain since
9am
mm
Dir  Spd
km/h
Gust
km/h
Spd
kts
Gust
kts
23/11:48pm 8.9 6.8 8.3 96 0.3 W 9 11 5 6 1019.8 - 0.0
23/11:42pm 9.2 7.6 8.6 96 0.3 W 7 9 4 5 1019.8 - 0.0
23/11:31pm 9.2 7.6 8.6 96 0.3 WNW 7 9 4 5 1019.9 - 0.0
23/11:30pm 9.2 7.6 8.7 97 0.2 WNW 7 11 4 6 1019.9 - 0.0
23/11:03pm 10.2 8.1 9.7 97 0.3 W 11 11 6 6 1020.1 - 0.0
23/11:00pm 10.2 8.1 9.7 97 0.3 W 11 13 6 7 1020.1 - 0.0
23/10:30pm 9.1 7.4 8.3 95 0.4 W 7 9 4 5 1020.1 - 0.0
23/10:03pm 9.9 8.6 9.1 95 0.4 W 6 7 3 4 1020.2 - 0.0
23/10:00pm 10.1 8.8 9.3 95 0.4 W 6 7 3 4 1020.2 - 0.0
23/09:38pm 10.8 9.1 10.0 95 0.4 WNW 9 11 5 6 1020.1 - 0.0
23/09:30pm 10.6 8.5 9.8 95 0.4 WNW 11 13 6 7 1020.1 - 0.0
23/09:14pm 10.1 8.6 9.2 94 0.4 WNW 7 9 4 5 1020.1 - 0.0
23/09:05pm 10.0 9.4 8.9 93 0.5 SSW 2 9 1 5 1020.0 - 0.0
23/09:00pm 10.1 9.9 8.9 92 0.6 CALM 0 0 0 0 1020.0 1020.0 0.0
23/08:42pm 9.9 9.6 8.7 92 0.6 CALM 0 0 0 0 1019.9 - 0.0
23/08:30pm 10.8 10.6 9.2 90 0.8 CALM 0 6 0 3 1019.9 - 0.0
23/08:00pm 12.9 11.7 11.6 92 0.7 SW 9 11 5 6 1019.7 - 0.0
23/07:30pm 12.4 10.3 9.6 83 1.4 NNW 11 13 6 7 1019.4 - 0.0
23/07:00pm 12.8 11.4 10.9 88 1.0 NNW 9 13 5 7 1019.1 - 0.0
23/06:30pm 12.7 10.7 8.6 76 2.0 N 9 13 5 7 1018.9 - 0.0
23/06:00pm 16.4 15.6 11.8 74 2.5 N 7 11 4 6 1018.5 1018.5 0.0
23/05:30pm 16.8 15.7 11.9 73 2.7 N 9 13 5 7 1018.2 - 0.0
23/05:00pm 18.5 16.4 12.3 67 3.4 N 15 20 8 11 1017.8 - 0.0

Other Formats:

Comma delimited format used in spreadsheet applications
http://www.bom.gov.au/fwo/IDQ60801/IDQ60801.94569.axf

JavaScript Object Notation format (JSON) in row-major order
http://www.bom.gov.au/fwo/IDQ60801/IDQ60801.94569.json